Terminal Aerodrome Forecast
Issued by NWS

Home | Current Version | Previous Version | Text Only | Print | Product List | Glossary On
Versions: 1 2 3 4 5 6 7 8 9 10 11 12 13 14 15
000
FTUS43 KDMX 290121 AAA
TAFOTM
TAF AMD
KOTM 290121Z 2901/2924 21015G25KT P6SM -SHRA VCTS BKN040CB
     FM290300 21009KT P6SM BKN060
     FM292100 22008KT P6SM VCTS BKN060CB=

USA.gov is the U.S. government's official web portal to all federal, state and local government web resources and services.